Bloomsburg, Pennsylvania
Current Conditions -  °F | °C
As of 8:20 PM on Saturday 22 Nov 2014 (Local Time) from KHZL Reporting Station
Overcast Overcast  
Wind Chill: 34°   Ceiling: 4900
Heat Index: 37°   Visibility: 10mi
Dew Point: 18°   Wind: 5mph
Humidity: 45%   Direction: 180°S
Pressure: 30.19"   Gusts: NA
Location:  41°N, 76.45°W
Report Text: KHZL 230120Z AUTO 18004KT 10SM OVC049 03/M08 A3019 RMK AO2
Loading
Personal Weather Stations






























Interactive Weather Map New forecast layout! Learn more

10-Day Weather Forecast

Advertisements
Track Severe Weather on mobile